Trine Charlotte — LMRY — position and weather

sailwx.info

Track history (hours):
 
Tides and Currents Weather Stations Pressure Air Temp Water Temp Dewpoint Dewpoint Depression Visibility Wind Speed Wind Dir Waves Ship Positions

Trine Charlotte

Last reported at 2017-Dec-11 16:59 UTC. Time now 2017-Dec-13 05:25 UTC.
Position N 68°47' E 016°36'.

Length 66 m; draft 4.4 m.

Type: Cargo ship. MMSI: 257233000.

Date/timePositionNaut miles runAvg speedWind from/ knotsBaromVisibWave heightAir tempDewpointWater temp
2017-Dec-11 16:59N 68°47' E 016°36'0 0.0
2017-Dec-11 16:30N 68°47' E 016°36'0 0.0
2017-Dec-11 16:00N 68°47' E 016°36'0 0.0
2017-Dec-11 15:30N 68°47' E 016°36'0 0.0
2017-Dec-11 15:00N 68°47' E 016°36'0 0.0
2017-Dec-11 14:30N 68°47' E 016°36'0 0.0
2017-Dec-11 14:00N 68°47' E 016°36'0 0.0
2017-Dec-11 13:30N 68°47' E 016°36'0 0.0
2017-Dec-11 12:59N 68°47' E 016°36'0 0.0
2017-Dec-11 12:29N 68°47' E 016°36'0 0.0
2017-Dec-11 12:00N 68°47' E 016°36'0 0.0
2017-Dec-11 11:30N 68°47' E 016°36'0 0.0
2017-Dec-11 11:00N 68°47' E 016°36'0 0.0
2017-Dec-11 10:30N 68°47' E 016°36'0 0.0
2017-Dec-11 10:00N 68°47' E 016°36'0 0.0
2017-Dec-11 09:30N 68°47' E 016°36'0 0.0
2017-Dec-11 09:00N 68°47' E 016°36'0 0.0
2017-Dec-11 08:30N 68°47' E 016°36'0 0.0
2017-Dec-11 08:00N 68°47' E 016°36'0 0.0
2017-Dec-11 07:30N 68°47' E 016°36'0 0.0
2017-Dec-11 07:00N 68°47' E 016°36'0 0.7
2017-Dec-11 06:29N 68°47' E 016°36'4 7.8
2017-Dec-11 06:00N 68°51' E 016°34'5 9.7
2017-Dec-11 05:30N 68°54' E 016°23'5 9.4
2017-Dec-11 05:00N 68°57' E 016°13'5 9.5
2017-Dec-11 04:30N 68°58' E 016°01'5 9.5
2017-Dec-11 03:59N 68°59' E 015°47'4 9.0
2017-Dec-11 03:30N 68°57' E 015°36'5 9.7
2017-Dec-11 03:00N 68°52' E 015°31'5 9.8
2017-Dec-11 02:30N 68°48' E 015°26'510.2
2017-Dec-11 02:00N 68°42' E 015°26'5 9.5
2017-Dec-11 01:30N 68°38' E 015°21'5 9.6
2017-Dec-11 01:00N 68°35' E 015°10'5 9.1
2017-Dec-11 00:30N 68°35' E 014°58'5 9.4
2017-Dec-11 00:00N 68°36' E 014°45'4 7.3
2017-Dec-10 23:30N 68°39' E 014°48'5 9.8
2017-Dec-10 22:59N 68°41' E 014°60'3 6.8
2017-Dec-10 22:30N 68°43' E 015°08'0 0.0
2017-Dec-10 22:00N 68°43' E 015°08'0 0.0
2017-Dec-10 21:30N 68°43' E 015°08'0 0.0
2017-Dec-10 20:59N 68°43' E 015°08'0 0.0
2017-Dec-10 20:30N 68°43' E 015°08'0 0.0
2017-Dec-10 20:00N 68°43' E 015°08'0 0.0
2017-Dec-10 19:30N 68°43' E 015°08'0 0.0
2017-Dec-10 19:00N 68°43' E 015°08'0 0.0
2017-Dec-10 18:30N 68°43' E 015°08'0 0.0
2017-Dec-10 18:00N 68°43' E 015°08'0 0.0
2017-Dec-10 17:30N 68°43' E 015°08'0 0.0
2017-Dec-10 17:00N 68°43' E 015°08'0 0.0
2017-Dec-10 16:30N 68°43' E 015°08'0 0.0
2017-Dec-10 16:00N 68°43' E 015°08'0 0.0
2017-Dec-10 15:30N 68°43' E 015°08'0 0.0
2017-Dec-10 15:00N 68°43' E 015°08'1 1.5
2017-Dec-10 14:30N 68°43' E 015°07'4 7.6
2017-Dec-10 14:00N 68°41' E 014°58'4 8.0
2017-Dec-10 13:30N 68°39' E 014°48'4 7.2
2017-Dec-10 13:00N 68°36' E 014°43'4 8.2
2017-Dec-10 12:30N 68°35' E 014°54'1 1.2
2017-Dec-10 12:00N 68°34' E 014°55'0 0.0
2017-Dec-10 11:30N 68°34' E 014°55'0 0.0
2017-Dec-10 11:00N 68°34' E 014°55'0 0.0
2017-Dec-10 10:29N 68°34' E 014°55'0 0.0
2017-Dec-10 10:00N 68°34' E 014°55'0 0.0
2017-Dec-10 09:30N 68°34' E 014°55'0 0.0
2017-Dec-10 09:00N 68°34' E 014°55'0 0.0
2017-Dec-10 08:30N 68°34' E 014°55'0 0.0
2017-Dec-10 08:00N 68°34' E 014°55'0 0.0
2017-Dec-10 07:30N 68°34' E 014°55'0 0.0
2017-Dec-10 07:00N 68°34' E 014°55'0 0.0
2017-Dec-10 06:30N 68°34' E 014°55'0 0.0
2017-Dec-10 06:00N 68°34' E 014°55'0 0.0
2017-Dec-10 05:30N 68°34' E 014°55'0 0.0
2017-Dec-10 05:00N 68°34' E 014°55'0 0.0
2017-Dec-10 04:30N 68°34' E 014°55'0 0.0
2017-Dec-10 04:00N 68°34' E 014°55'0 0.0
2017-Dec-10 03:30N 68°34' E 014°55'0 0.0
2017-Dec-10 03:00N 68°34' E 014°55'0 0.0
2017-Dec-10 02:30N 68°34' E 014°55'0 0.0
2017-Dec-10 02:00N 68°34' E 014°55'0 0.0
2017-Dec-10 01:30N 68°34' E 014°55'0 0.0
2017-Dec-10 01:00N 68°34' E 014°55'0 0.0
2017-Dec-10 00:30N 68°34' E 014°55'0 0.0
2017-Dec-10 00:00N 68°34' E 014°55'0 0.0
2017-Dec-09 23:30N 68°34' E 014°55'0 0.0
2017-Dec-09 23:00N 68°34' E 014°55'0 0.0
2017-Dec-09 22:30N 68°34' E 014°55'0 0.0
2017-Dec-09 22:00N 68°34' E 014°55'0 0.0
2017-Dec-09 21:30N 68°34' E 014°55'0 0.0
2017-Dec-09 21:00N 68°34' E 014°55'0 0.0
2017-Dec-09 20:30N 68°34' E 014°55'0 0.0
2017-Dec-09 20:00N 68°34' E 014°55'0 0.0
2017-Dec-09 19:30N 68°34' E 014°55'0 0.1
2017-Dec-09 19:00N 68°34' E 014°55'0 0.0
2017-Dec-09 18:30N 68°34' E 014°55'0 0.0
2017-Dec-09 17:59N 68°34' E 014°55'1 1.3
2017-Dec-09 17:30N 68°35' E 014°53'4 8.3
2017-Dec-09 17:00N 68°36' E 014°43'4 8.1
2017-Dec-09 16:29N 68°39' E 014°50'4 9.2
2017-Dec-09 16:00N 68°42' E 015°00'2 4.6
2017-Dec-09 15:30N 68°43' E 015°06'0 0.4
2017-Dec-09 15:00N 68°43' E 015°06'0 0.5
2017-Dec-09 14:30N 68°43' E 015°07'0 0.5
2017-Dec-09 14:00N 68°43' E 015°07'0 0.3
2017-Dec-09 13:30N 68°43' E 015°08'1 1.3
2017-Dec-09 13:00N 68°43' E 015°06'0 0.5
2017-Dec-09 12:30N 68°43' E 015°07'2 3.8
2017-Dec-09 12:00N 68°42' E 015°03'3 6.4
2017-Dec-09 11:30N 68°41' E 014°55'3 6.2
2017-Dec-09 11:00N 68°39' E 014°48'2 4.8
2017-Dec-09 10:30N 68°38' E 014°43'2 4.3
2017-Dec-09 10:00N 68°36' E 014°46'2 3.2
2017-Dec-09 09:30N 68°35' E 014°50'3 5.8
2017-Dec-09 09:00N 68°35' E 014°57'3 5.7
2017-Dec-09 08:30N 68°34' E 015°05'3 5.9
2017-Dec-09 08:00N 68°36' E 015°12'4 8.7
2017-Dec-09 07:30N 68°38' E 015°22'5 9.4
2017-Dec-09 07:00N 68°43' E 015°26'5 9.1
2017-Dec-09 06:30N 68°48' E 015°26'4 8.9
2017-Dec-09 06:00N 68°52' E 015°30'4 9.0
2017-Dec-09 05:30N 68°56' E 015°36'4 8.2
2017-Dec-09 05:00N 68°59' E 015°43'4 9.0
2017-Dec-09 04:30N 68°59' E 015°56'5 9.0
2017-Dec-09 04:00N 68°59' E 016°08'4 8.8
2017-Dec-09 03:30N 68°60' E 016°21'4 8.9
2017-Dec-09 03:00N 68°58' E 016°33'4 8.2
2017-Dec-09 02:30N 68°59' E 016°44'5 9.2
2017-Dec-09 02:00N 68°59' E 016°56'5 9.2
2017-Dec-09 01:30N 68°60' E 017°09'4 8.3
2017-Dec-09 01:00N 69°02' E 017°19'4 8.7
2017-Dec-09 00:30N 69°05' E 017°27'5 9.2
2017-Dec-09 00:00N 69°07' E 017°38'5 9.3
2017-Dec-08 23:30N 69°09' E 017°51'4 9.0
2017-Dec-08 23:00N 69°12' E 018°01'4 7.4
2017-Dec-08 22:30N 69°15' E 017°58'4 7.7
2017-Dec-08 22:00N 69°19' E 017°59'4 8.0
2017-Dec-08 21:30N 69°22' E 018°06'4 8.1
2017-Dec-08 21:00N 69°26' E 018°07'4 8.2
2017-Dec-08 20:30N 69°29' E 018°14'4 9.0
2017-Dec-08 20:00N 69°31' E 018°26'5 8.9
2017-Dec-08 19:30N 69°33' E 018°38'510.0
2017-Dec-08 19:00N 69°35' E 018°51'4 8.8
2017-Dec-08 18:30N 69°39' E 018°58'1 2.4
2017-Dec-08 18:00N 69°40' E 018°58'0 0.0
2017-Dec-08 17:30N 69°40' E 018°58'3 5.4
2017-Dec-08 17:00N 69°42' E 019°03'4 8.4
2017-Dec-08 16:30N 69°46' E 019°09'4 8.8
2017-Dec-08 16:00N 69°48' E 019°21'4 9.0
2017-Dec-08 15:30N 69°49' E 019°33'4 8.1
2017-Dec-08 15:00N 69°48' E 019°45'5 9.1
2017-Dec-08 14:30N 69°44' E 019°45'5 9.4
2017-Dec-08 14:00N 69°39' E 019°45'3 5.5
2017-Dec-08 13:30N 69°37' E 019°44'0 0.0
2017-Dec-08 13:00N 69°37' E 019°44'0 0.0
2017-Dec-08 12:30N 69°37' E 019°44'0 0.0
2017-Dec-08 12:00N 69°37' E 019°44'0 0.0
2017-Dec-08 11:30N 69°37' E 019°44'0 0.0
2017-Dec-08 11:00N 69°37' E 019°44'0 0.0
2017-Dec-08 10:30N 69°37' E 019°44'0 0.0
2017-Dec-08 10:00N 69°37' E 019°44'0 0.0
2017-Dec-08 09:30N 69°37' E 019°44'1 2.5
2017-Dec-08 09:00N 69°38' E 019°45'3 5.4
2017-Dec-08 08:30N 69°40' E 019°44'2 4.1
2017-Dec-08 08:00N 69°42' E 019°44'2 4.8
2017-Dec-08 07:30N 69°45' E 019°45'3 6.5
2017-Dec-08 07:00N 69°48' E 019°45'3 6.3
2017-Dec-08 06:30N 69°49' E 019°36'4 8.8
2017-Dec-08 06:00N 69°48' E 019°24'4 8.2
2017-Dec-08 05:30N 69°46' E 019°13'4 8.7
2017-Dec-08 05:00N 69°43' E 019°04'4 8.5
2017-Dec-08 04:30N 69°40' E 018°58'0 0.1
2017-Dec-08 04:00N 69°40' E 018°58'0 0.0
2017-Dec-08 03:30N 69°40' E 018°58'0 0.0
2017-Dec-08 03:00N 69°40' E 018°58'0 0.0
2017-Dec-08 02:30N 69°40' E 018°58'0 0.0
2017-Dec-08 02:00N 69°40' E 018°58'0 0.0
2017-Dec-08 01:30N 69°40' E 018°58'0 0.0
2017-Dec-08 01:00N 69°40' E 018°58'0 0.0
2017-Dec-08 00:31N 69°40' E 018°58'4 7.4
2017-Dec-08 00:00N 69°36' E 018°54'611.1
2017-Dec-07 23:30N 69°33' E 018°41'4 8.4
2017-Dec-07 23:00N 69°31' E 018°29'4 8.0
2017-Dec-07 22:30N 69°30' E 018°19'3 5.5
2017-Dec-07 22:00N 69°29' E 018°11'4 8.1
2017-Dec-07 21:30N 69°25' E 018°07'5 9.5
2017-Dec-07 21:00N 69°21' E 018°04'4 8.8
2017-Dec-07 20:30N 69°17' E 017°58'4 7.5
2017-Dec-07 20:00N 69°13' E 018°02'1 2.0
2017-Dec-07 19:30N 69°13' E 018°04'0 0.0
2017-Dec-07 19:01N 69°13' E 018°04'0 0.0
2017-Dec-07 18:30N 69°13' E 018°04'0 0.0
2017-Dec-07 18:00N 69°13' E 018°04'0 0.0
2017-Dec-07 17:31N 69°13' E 018°04'0 0.0
2017-Dec-07 17:01N 69°13' E 018°04'0 0.0
2017-Dec-07 16:30N 69°13' E 018°04'0 0.0
2017-Dec-07 16:00N 69°13' E 018°04'0 0.0
2017-Dec-07 15:31N 69°13' E 018°04'0 0.0
2017-Dec-07 15:00N 69°13' E 018°04'0 0.0
2017-Dec-07 14:30N 69°13' E 018°04'0 0.0
2017-Dec-07 14:01N 69°13' E 018°04'0 0.0
2017-Dec-07 13:30N 69°13' E 018°04'0 0.0
2017-Dec-07 13:01N 69°13' E 018°04'0 0.0
2017-Dec-07 12:31N 69°13' E 018°04'0 0.0
2017-Dec-07 12:01N 69°13' E 018°04'0 0.0
2017-Dec-07 11:30N 69°13' E 018°04'0 0.0
2017-Dec-07 11:01N 69°13' E 018°04'0 0.0
2017-Dec-07 10:30N 69°13' E 018°04'0 0.0
2017-Dec-07 10:00N 69°13' E 018°04'0 0.0
2017-Dec-07 09:31N 69°13' E 018°04'0 0.0
2017-Dec-07 09:00N 69°13' E 018°04'0 0.0
2017-Dec-07 08:30N 69°13' E 018°04'0 0.0
2017-Dec-07 08:01N 69°13' E 018°04'0 0.0
2017-Dec-07 07:30N 69°13' E 018°04'0 0.0
2017-Dec-07 07:01N 69°13' E 018°04'0 0.0
2017-Dec-07 06:30N 69°13' E 018°04'0 0.0
2017-Dec-07 06:00N 69°13' E 018°04'0 0.0
2017-Dec-07 05:30N 69°13' E 018°04'0 0.0
2017-Dec-07 05:00N 69°13' E 018°04'0 0.0
2017-Dec-07 04:31N 69°13' E 018°04'0 0.0
2017-Dec-07 04:00N 69°13' E 018°04'2 4.8
2017-Dec-07 03:30N 69°11' E 018°01'4 7.3
2017-Dec-07 03:01N 69°09' E 017°52'4 7.6
2017-Dec-07 02:30N 69°08' E 017°42'4 7.6
2017-Dec-07 02:00N 69°06' E 017°32'4 7.6
2017-Dec-07 01:30N 69°04' E 017°23'4 7.7
2017-Dec-07 01:00N 69°01' E 017°17'4 7.6
2017-Dec-07 00:31N 68°59' E 017°10'4 7.6
2017-Dec-07 00:00N 68°56' E 017°01'4 7.2
2017-Dec-06 23:30N 68°54' E 016°54'4 7.4
2017-Dec-06 23:00N 68°51' E 016°46'4 7.3
2017-Dec-06 22:30N 68°49' E 016°37'2 3.9
2017-Dec-06 22:00N 68°48' E 016°33'4 7.2
2017-Dec-06 21:31N 68°46' E 016°41'5 9.1
2017-Dec-06 21:00N 68°41' E 016°40'  
2017-Dec-04 10:30N 67°16' E 014°21'0 0.7
2017-Dec-04 10:00N 67°17' E 014°21'1 2.3
2017-Dec-04 09:30N 67°17' E 014°23'0 0.0
2017-Dec-04 09:00N 67°17' E 014°23'0 0.2
2017-Dec-04 08:30N 67°17' E 014°23'1 2.5
2017-Dec-04 08:00N 67°16' E 014°21'0 0.0
2017-Dec-04 07:30N 67°16' E 014°21'0 0.0
2017-Dec-04 07:00N 67°16' E 014°21'0 0.0
2017-Dec-04 06:30N 67°16' E 014°21'1 1.9
2017-Dec-04 06:00N 67°16' E 014°18'4 8.1
2017-Dec-04 05:30N 67°13' E 014°11'4 8.2
2017-Dec-04 05:00N 67°10' E 014°04'4 8.2
2017-Dec-04 04:30N 67°06' E 013°59'4 8.4
2017-Dec-04 04:00N 67°03' E 013°52'4 8.7
2017-Dec-04 03:30N 67°00' E 013°44'4 8.5
2017-Dec-04 03:00N 66°58' E 013°35'3 6.7
2017-Dec-04 02:30N 66°55' E 013°29'4 8.5
2017-Dec-04 02:00N 66°53' E 013°21'4 8.5
2017-Dec-04 01:30N 66°49' E 013°16'4 8.8
2017-Dec-04 01:00N 66°45' E 013°12'4 9.0
2017-Dec-04 00:30N 66°41' E 013°08'4 8.9
2017-Dec-04 00:00N 66°36' E 013°05'4 7.8
2017-Dec-03 23:30N 66°33' E 013°01'4 7.9
2017-Dec-03 23:00N 66°29' E 012°59'4 8.9
2017-Dec-03 22:30N 66°24' E 012°58'4 8.8
2017-Dec-03 22:00N 66°20' E 012°57'4 8.6
2017-Dec-03 21:29N 66°16' E 012°55'3 6.6
2017-Dec-03 21:00N 66°13' E 012°58'3 6.7
2017-Dec-03 20:29N 66°10' E 013°04'4 8.4
2017-Dec-03 19:59N 66°11' E 013°14'0 0.2
2017-Dec-03 19:30N 66°11' E 013°14'0 0.0
2017-Dec-03 18:59N 66°11' E 013°14'0 0.0
2017-Dec-03 18:30N 66°11' E 013°14'0 0.0
2017-Dec-03 18:00N 66°11' E 013°14'3 6.5
2017-Dec-03 17:30N 66°11' E 013°06'3 6.6
2017-Dec-03 17:00N 66°12' E 012°59'4 7.6
2017-Dec-03 16:30N 66°16' E 012°55'5 9.9
2017-Dec-03 16:00N 66°21' E 012°57'5 9.8
2017-Dec-03 15:30N 66°25' E 012°59'5 9.8
2017-Dec-03 15:00N 66°30' E 012°59'4 8.9
2017-Dec-03 14:30N 66°34' E 013°04'5 9.7
2017-Dec-03 14:00N 66°39' E 013°06'5 9.9
2017-Dec-03 13:30N 66°43' E 013°11'510.1
2017-Dec-03 13:00N 66°48' E 013°15'5 9.6
2017-Dec-03 12:30N 66°52' E 013°21'4 9.2
2017-Dec-03 12:00N 66°56' E 013°29'4 8.2
2017-Dec-03 11:30N 66°59' E 013°35'5 9.1
2017-Dec-03 11:00N 67°02' E 013°45'5 9.1
2017-Dec-03 10:30N 67°04' E 013°54'4 8.6
2017-Dec-03 10:00N 67°08' E 014°01'4 8.4
2017-Dec-03 09:30N 67°11' E 014°06'5 9.1
2017-Dec-03 09:00N 67°15' E 014°14'3 5.8
2017-Dec-03 08:30N 67°16' E 014°21'0 0.0
2017-Dec-03 08:00N 67°16' E 014°21'0 0.0
2017-Dec-03 07:30N 67°16' E 014°21'0 0.0
2017-Dec-03 07:00N 67°16' E 014°21'0 0.0
2017-Dec-03 06:30N 67°16' E 014°21'0 0.0
2017-Dec-03 06:00N 67°16' E 014°21'0 0.0
2017-Dec-03 05:30N 67°16' E 014°21'0 0.0
2017-Dec-03 05:00N 67°16' E 014°21'0 0.0
2017-Dec-03 04:30N 67°16' E 014°21'0 0.0
2017-Dec-03 04:00N 67°16' E 014°21'0 0.0
2017-Dec-03 03:30N 67°16' E 014°21'0 0.0
2017-Dec-03 03:00N 67°16' E 014°21'0 0.8
2017-Dec-03 02:30N 67°16' E 014°20'2 3.5
2017-Dec-03 02:00N 67°15' E 014°18'2 4.8
2017-Dec-03 01:30N 67°15' E 014°25'2 4.3
2017-Dec-03 01:00N 67°15' E 014°30'2 4.7
2017-Dec-03 00:30N 67°14' E 014°36'4 7.7
2017-Dec-03 00:00N 67°14' E 014°46'4 8.0
2017-Dec-02 23:30N 67°16' E 014°56'3 5.5
2017-Dec-02 23:00N 67°13' E 014°59'4 7.8
2017-Dec-02 22:30N 67°09' E 014°57'2 4.7
2017-Dec-02 22:00N 67°07' E 014°59'0 0.0
2017-Dec-02 21:30N 67°07' E 014°59'0 0.0
2017-Dec-02 21:00N 67°07' E 014°59'0 0.0
2017-Dec-02 20:29N 67°07' E 014°59'4 7.3
2017-Dec-02 19:56N 67°11' E 014°56'4 9.1
2017-Dec-02 19:30N 67°14' E 015°01'5 9.7
2017-Dec-02 19:00N 67°14' E 015°14'4 8.6
2017-Dec-02 18:30N 67°15' E 015°25'0 0.2
2017-Dec-02 18:01N 67°15' E 015°25'0 0.0
2017-Dec-02 17:30N 67°15' E 015°25'0 0.0
2017-Dec-02 17:00N 67°15' E 015°25'0 0.0
2017-Dec-02 16:30N 67°15' E 015°25'0 0.0
2017-Dec-02 16:00N 67°15' E 015°25'0 0.0
2017-Dec-02 15:30N 67°15' E 015°25'0 0.0
2017-Dec-02 15:00N 67°15' E 015°25'0 0.1
2017-Dec-02 14:31N 67°15' E 015°25'4 7.7
2017-Dec-02 14:00N 67°14' E 015°15'4 9.0
2017-Dec-02 13:30N 67°15' E 015°04'4 8.6
2017-Dec-02 13:00N 67°16' E 014°53'4 8.4
2017-Dec-02 12:30N 67°14' E 014°43'3 6.7
2017-Dec-02 12:00N 67°15' E 014°36'1 1.1
2017-Dec-02 11:30N 67°15' E 014°37'2 3.3
2017-Dec-02 11:00N 67°15' E 014°33'3 6.6
2017-Dec-02 10:30N 67°14' E 014°25'4 7.3
2017-Dec-02 10:00N 67°13' E 014°16'4 7.5
2017-Dec-02 09:30N 67°11' E 014°08'4 7.5
2017-Dec-02 09:00N 67°08' E 014°01'4 8.5
2017-Dec-02 08:30N 67°05' E 013°55'4 8.5
2017-Dec-02 08:00N 67°02' E 013°47'4 8.3
2017-Dec-02 07:30N 66°60' E 013°38'4 8.3
2017-Dec-02 07:00N 66°57' E 013°29'4 7.6
2017-Dec-02 06:30N 66°54' E 013°26'4 8.0
2017-Dec-02 06:00N 66°51' E 013°19'4 7.6
2017-Dec-02 05:30N 66°47' E 013°15'4 8.1
2017-Dec-02 05:00N 66°43' E 013°11'4 8.0
2017-Dec-02 04:30N 66°40' E 013°08'4 7.8
2017-Dec-02 04:00N 66°36' E 013°04'3 6.9
2017-Dec-02 03:30N 66°33' E 013°01'3 6.9
2017-Dec-02 03:00N 66°30' E 012°59'4 8.0
2017-Dec-02 02:29N 66°25' E 012°59'4 8.1
2017-Dec-02 02:00N 66°22' E 012°58'4 7.6
2017-Dec-02 01:30N 66°18' E 012°56'4 7.8
2017-Dec-02 01:00N 66°14' E 012°54'4 8.2
2017-Dec-02 00:30N 66°10' E 012°50'4 8.3
2017-Dec-02 00:00N 66°07' E 012°44'4 8.7
2017-Dec-01 23:30N 66°03' E 012°38'4 8.8
2017-Dec-01 23:00N 65°60' E 012°31'4 8.9
2017-Dec-01 22:30N 65°56' E 012°25'4 8.7
2017-Dec-01 22:00N 65°52' E 012°22'4 8.5
2017-Dec-01 21:30N 65°48' E 012°20'4 8.1
2017-Dec-01 21:00N 65°44' E 012°18'4 8.3
2017-Dec-01 20:30N 65°40' E 012°16'4 8.4
2017-Dec-01 20:00N 65°36' E 012°14'4 8.5
2017-Dec-01 19:30N 65°32' E 012°12'4 7.9
2017-Dec-01 19:00N 65°28' E 012°11'5 9.6
2017-Dec-01 18:30N 65°23' E 012°07'5 9.4
2017-Dec-01 18:00N 65°19' E 012°01'5 9.3
2017-Dec-01 17:30N 65°15' E 011°56'5 9.4
2017-Dec-01 17:00N 65°11' E 011°51'  
Track history (hours):
 
Tides and Currents Weather Stations Pressure Air Temp Water Temp Dewpoint Dewpoint Depression Visibility Wind Speed Wind Dir Waves Ship Positions

Trine Charlotte

Last reported at 2017-Dec-11 16:59 UTC. Time now 2017-Dec-13 05:25 UTC.
Position N 68°47' E 016°36'.

Length 66 m; draft 4.4 m.

Type: Cargo ship. MMSI: 257233000.

Date/timePositionNaut miles runAvg speedWind from/ knotsBaromVisibWave heightAir tempDewpointWater temp
2017-Dec-11 16:59N 68°47' E 016°36'0 0.0
2017-Dec-11 16:30N 68°47' E 016°36'0 0.0
2017-Dec-11 16:00N 68°47' E 016°36'0 0.0
2017-Dec-11 15:30N 68°47' E 016°36'0 0.0
2017-Dec-11 15:00N 68°47' E 016°36'0 0.0
2017-Dec-11 14:30N 68°47' E 016°36'0 0.0
2017-Dec-11 14:00N 68°47' E 016°36'0 0.0
2017-Dec-11 13:30N 68°47' E 016°36'0 0.0
2017-Dec-11 12:59N 68°47' E 016°36'0 0.0
2017-Dec-11 12:29N 68°47' E 016°36'0 0.0
2017-Dec-11 12:00N 68°47' E 016°36'0 0.0
2017-Dec-11 11:30N 68°47' E 016°36'0 0.0
2017-Dec-11 11:00N 68°47' E 016°36'0 0.0
2017-Dec-11 10:30N 68°47' E 016°36'0 0.0
2017-Dec-11 10:00N 68°47' E 016°36'0 0.0
2017-Dec-11 09:30N 68°47' E 016°36'0 0.0
2017-Dec-11 09:00N 68°47' E 016°36'0 0.0
2017-Dec-11 08:30N 68°47' E 016°36'0 0.0
2017-Dec-11 08:00N 68°47' E 016°36'0 0.0
2017-Dec-11 07:30N 68°47' E 016°36'0 0.0
2017-Dec-11 07:00N 68°47' E 016°36'0 0.7
2017-Dec-11 06:29N 68°47' E 016°36'4 7.8
2017-Dec-11 06:00N 68°51' E 016°34'5 9.7
2017-Dec-11 05:30N 68°54' E 016°23'5 9.4
2017-Dec-11 05:00N 68°57' E 016°13'5 9.5
2017-Dec-11 04:30N 68°58' E 016°01'5 9.5
2017-Dec-11 03:59N 68°59' E 015°47'4 9.0
2017-Dec-11 03:30N 68°57' E 015°36'5 9.7
2017-Dec-11 03:00N 68°52' E 015°31'5 9.8
2017-Dec-11 02:30N 68°48' E 015°26'510.2
2017-Dec-11 02:00N 68°42' E 015°26'5 9.5
2017-Dec-11 01:30N 68°38' E 015°21'5 9.6
2017-Dec-11 01:00N 68°35' E 015°10'5 9.1
2017-Dec-11 00:30N 68°35' E 014°58'5 9.4
2017-Dec-11 00:00N 68°36' E 014°45'4 7.3
2017-Dec-10 23:30N 68°39' E 014°48'5 9.8
2017-Dec-10 22:59N 68°41' E 014°60'3 6.8
2017-Dec-10 22:30N 68°43' E 015°08'0 0.0
2017-Dec-10 22:00N 68°43' E 015°08'0 0.0
2017-Dec-10 21:30N 68°43' E 015°08'0 0.0
2017-Dec-10 20:59N 68°43' E 015°08'0 0.0
2017-Dec-10 20:30N 68°43' E 015°08'0 0.0
2017-Dec-10 20:00N 68°43' E 015°08'0 0.0
2017-Dec-10 19:30N 68°43' E 015°08'0 0.0
2017-Dec-10 19:00N 68°43' E 015°08'0 0.0
2017-Dec-10 18:30N 68°43' E 015°08'0 0.0
2017-Dec-10 18:00N 68°43' E 015°08'0 0.0
2017-Dec-10 17:30N 68°43' E 015°08'0 0.0
2017-Dec-10 17:00N 68°43' E 015°08'0 0.0
2017-Dec-10 16:30N 68°43' E 015°08'0 0.0
2017-Dec-10 16:00N 68°43' E 015°08'0 0.0
2017-Dec-10 15:30N 68°43' E 015°08'0 0.0
2017-Dec-10 15:00N 68°43' E 015°08'1 1.5
2017-Dec-10 14:30N 68°43' E 015°07'4 7.6
2017-Dec-10 14:00N 68°41' E 014°58'4 8.0
2017-Dec-10 13:30N 68°39' E 014°48'4 7.2
2017-Dec-10 13:00N 68°36' E 014°43'4 8.2
2017-Dec-10 12:30N 68°35' E 014°54'1 1.2
2017-Dec-10 12:00N 68°34' E 014°55'0 0.0
2017-Dec-10 11:30N 68°34' E 014°55'0 0.0
2017-Dec-10 11:00N 68°34' E 014°55'0 0.0
2017-Dec-10 10:29N 68°34' E 014°55'0 0.0
2017-Dec-10 10:00N 68°34' E 014°55'0 0.0
2017-Dec-10 09:30N 68°34' E 014°55'0 0.0
2017-Dec-10 09:00N 68°34' E 014°55'0 0.0
2017-Dec-10 08:30N 68°34' E 014°55'0 0.0
2017-Dec-10 08:00N 68°34' E 014°55'0 0.0
2017-Dec-10 07:30N 68°34' E 014°55'0 0.0
2017-Dec-10 07:00N 68°34' E 014°55'0 0.0
2017-Dec-10 06:30N 68°34' E 014°55'0 0.0
2017-Dec-10 06:00N 68°34' E 014°55'0 0.0
2017-Dec-10 05:30N 68°34' E 014°55'0 0.0
2017-Dec-10 05:00N 68°34' E 014°55'0 0.0
2017-Dec-10 04:30N 68°34' E 014°55'0 0.0
2017-Dec-10 04:00N 68°34' E 014°55'0 0.0
2017-Dec-10 03:30N 68°34' E 014°55'0 0.0
2017-Dec-10 03:00N 68°34' E 014°55'0 0.0
2017-Dec-10 02:30N 68°34' E 014°55'0 0.0
2017-Dec-10 02:00N 68°34' E 014°55'0 0.0
2017-Dec-10 01:30N 68°34' E 014°55'0 0.0
2017-Dec-10 01:00N 68°34' E 014°55'0 0.0
2017-Dec-10 00:30N 68°34' E 014°55'0 0.0
2017-Dec-10 00:00N 68°34' E 014°55'0 0.0
2017-Dec-09 23:30N 68°34' E 014°55'0 0.0
2017-Dec-09 23:00N 68°34' E 014°55'0 0.0
2017-Dec-09 22:30N 68°34' E 014°55'0 0.0
2017-Dec-09 22:00N 68°34' E 014°55'0 0.0
2017-Dec-09 21:30N 68°34' E 014°55'0 0.0
2017-Dec-09 21:00N 68°34' E 014°55'0 0.0
2017-Dec-09 20:30N 68°34' E 014°55'0 0.0
2017-Dec-09 20:00N 68°34' E 014°55'0 0.0
2017-Dec-09 19:30N 68°34' E 014°55'0 0.1
2017-Dec-09 19:00N 68°34' E 014°55'0 0.0
2017-Dec-09 18:30N 68°34' E 014°55'0 0.0
2017-Dec-09 17:59N 68°34' E 014°55'1 1.3
2017-Dec-09 17:30N 68°35' E 014°53'4 8.3
2017-Dec-09 17:00N 68°36' E 014°43'4 8.1
2017-Dec-09 16:29N 68°39' E 014°50'4 9.2
2017-Dec-09 16:00N 68°42' E 015°00'2 4.6
2017-Dec-09 15:30N 68°43' E 015°06'0 0.4
2017-Dec-09 15:00N 68°43' E 015°06'0 0.5
2017-Dec-09 14:30N 68°43' E 015°07'0 0.5
2017-Dec-09 14:00N 68°43' E 015°07'0 0.3
2017-Dec-09 13:30N 68°43' E 015°08'1 1.3
2017-Dec-09 13:00N 68°43' E 015°06'0 0.5
2017-Dec-09 12:30N 68°43' E 015°07'2 3.8
2017-Dec-09 12:00N 68°42' E 015°03'3 6.4
2017-Dec-09 11:30N 68°41' E 014°55'3 6.2
2017-Dec-09 11:00N 68°39' E 014°48'2 4.8
2017-Dec-09 10:30N 68°38' E 014°43'2 4.3
2017-Dec-09 10:00N 68°36' E 014°46'2 3.2
2017-Dec-09 09:30N 68°35' E 014°50'3 5.8
2017-Dec-09 09:00N 68°35' E 014°57'3 5.7
2017-Dec-09 08:30N 68°34' E 015°05'3 5.9
2017-Dec-09 08:00N 68°36' E 015°12'4 8.7
2017-Dec-09 07:30N 68°38' E 015°22'5 9.4
2017-Dec-09 07:00N 68°43' E 015°26'5 9.1
2017-Dec-09 06:30N 68°48' E 015°26'4 8.9
2017-Dec-09 06:00N 68°52' E 015°30'4 9.0
2017-Dec-09 05:30N 68°56' E 015°36'4 8.2
2017-Dec-09 05:00N 68°59' E 015°43'4 9.0
2017-Dec-09 04:30N 68°59' E 015°56'5 9.0
2017-Dec-09 04:00N 68°59' E 016°08'4 8.8
2017-Dec-09 03:30N 68°60' E 016°21'4 8.9
2017-Dec-09 03:00N 68°58' E 016°33'4 8.2
2017-Dec-09 02:30N 68°59' E 016°44'5 9.2
2017-Dec-09 02:00N 68°59' E 016°56'5 9.2
2017-Dec-09 01:30N 68°60' E 017°09'4 8.3
2017-Dec-09 01:00N 69°02' E 017°19'4 8.7
2017-Dec-09 00:30N 69°05' E 017°27'5 9.2
2017-Dec-09 00:00N 69°07' E 017°38'5 9.3
2017-Dec-08 23:30N 69°09' E 017°51'4 9.0
2017-Dec-08 23:00N 69°12' E 018°01'4 7.4
2017-Dec-08 22:30N 69°15' E 017°58'4 7.7
2017-Dec-08 22:00N 69°19' E 017°59'4 8.0
2017-Dec-08 21:30N 69°22' E 018°06'4 8.1
2017-Dec-08 21:00N 69°26' E 018°07'4 8.2
2017-Dec-08 20:30N 69°29' E 018°14'4 9.0
2017-Dec-08 20:00N 69°31' E 018°26'5 8.9
2017-Dec-08 19:30N 69°33' E 018°38'510.0
2017-Dec-08 19:00N 69°35' E 018°51'4 8.8
2017-Dec-08 18:30N 69°39' E 018°58'1 2.4
2017-Dec-08 18:00N 69°40' E 018°58'0 0.0
2017-Dec-08 17:30N 69°40' E 018°58'3 5.4
2017-Dec-08 17:00N 69°42' E 019°03'4 8.4
2017-Dec-08 16:30N 69°46' E 019°09'4 8.8
2017-Dec-08 16:00N 69°48' E 019°21'4 9.0
2017-Dec-08 15:30N 69°49' E 019°33'4 8.1
2017-Dec-08 15:00N 69°48' E 019°45'5 9.1
2017-Dec-08 14:30N 69°44' E 019°45'5 9.4
2017-Dec-08 14:00N 69°39' E 019°45'3 5.5
2017-Dec-08 13:30N 69°37' E 019°44'0 0.0
2017-Dec-08 13:00N 69°37' E 019°44'0 0.0
2017-Dec-08 12:30N 69°37' E 019°44'0 0.0
2017-Dec-08 12:00N 69°37' E 019°44'0 0.0
2017-Dec-08 11:30N 69°37' E 019°44'0 0.0
2017-Dec-08 11:00N 69°37' E 019°44'0 0.0
2017-Dec-08 10:30N 69°37' E 019°44'0 0.0
2017-Dec-08 10:00N 69°37' E 019°44'0 0.0
2017-Dec-08 09:30N 69°37' E 019°44'1 2.5
2017-Dec-08 09:00N 69°38' E 019°45'3 5.4
2017-Dec-08 08:30N 69°40' E 019°44'2 4.1
2017-Dec-08 08:00N 69°42' E 019°44'2 4.8
2017-Dec-08 07:30N 69°45' E 019°45'3 6.5
2017-Dec-08 07:00N 69°48' E 019°45'3 6.3
2017-Dec-08 06:30N 69°49' E 019°36'4 8.8
2017-Dec-08 06:00N 69°48' E 019°24'4 8.2
2017-Dec-08 05:30N 69°46' E 019°13'4 8.7
2017-Dec-08 05:00N 69°43' E 019°04'4 8.5
2017-Dec-08 04:30N 69°40' E 018°58'0 0.1
2017-Dec-08 04:00N 69°40' E 018°58'0 0.0
2017-Dec-08 03:30N 69°40' E 018°58'0 0.0
2017-Dec-08 03:00N 69°40' E 018°58'0 0.0
2017-Dec-08 02:30N 69°40' E 018°58'0 0.0
2017-Dec-08 02:00N 69°40' E 018°58'0 0.0
2017-Dec-08 01:30N 69°40' E 018°58'0 0.0
2017-Dec-08 01:00N 69°40' E 018°58'0 0.0
2017-Dec-08 00:31N 69°40' E 018°58'4 7.4
2017-Dec-08 00:00N 69°36' E 018°54'611.1
2017-Dec-07 23:30N 69°33' E 018°41'4 8.4
2017-Dec-07 23:00N 69°31' E 018°29'4 8.0
2017-Dec-07 22:30N 69°30' E 018°19'3 5.5
2017-Dec-07 22:00N 69°29' E 018°11'4 8.1
2017-Dec-07 21:30N 69°25' E 018°07'5 9.5
2017-Dec-07 21:00N 69°21' E 018°04'4 8.8
2017-Dec-07 20:30N 69°17' E 017°58'4 7.5
2017-Dec-07 20:00N 69°13' E 018°02'1 2.0
2017-Dec-07 19:30N 69°13' E 018°04'0 0.0
2017-Dec-07 19:01N 69°13' E 018°04'0 0.0
2017-Dec-07 18:30N 69°13' E 018°04'0 0.0
2017-Dec-07 18:00N 69°13' E 018°04'0 0.0
2017-Dec-07 17:31N 69°13' E 018°04'0 0.0
2017-Dec-07 17:01N 69°13' E 018°04'0 0.0
2017-Dec-07 16:30N 69°13' E 018°04'0 0.0
2017-Dec-07 16:00N 69°13' E 018°04'0 0.0
2017-Dec-07 15:31N 69°13' E 018°04'0 0.0
2017-Dec-07 15:00N 69°13' E 018°04'0 0.0
2017-Dec-07 14:30N 69°13' E 018°04'0 0.0
2017-Dec-07 14:01N 69°13' E 018°04'0 0.0
2017-Dec-07 13:30N 69°13' E 018°04'0 0.0
2017-Dec-07 13:01N 69°13' E 018°04'0 0.0
2017-Dec-07 12:31N 69°13' E 018°04'0 0.0
2017-Dec-07 12:01N 69°13' E 018°04'0 0.0
2017-Dec-07 11:30N 69°13' E 018°04'0 0.0
2017-Dec-07 11:01N 69°13' E 018°04'0 0.0
2017-Dec-07 10:30N 69°13' E 018°04'0 0.0
2017-Dec-07 10:00N 69°13' E 018°04'0 0.0
2017-Dec-07 09:31N 69°13' E 018°04'0 0.0
2017-Dec-07 09:00N 69°13' E 018°04'0 0.0
2017-Dec-07 08:30N 69°13' E 018°04'0 0.0
2017-Dec-07 08:01N 69°13' E 018°04'0 0.0
2017-Dec-07 07:30N 69°13' E 018°04'0 0.0
2017-Dec-07 07:01N 69°13' E 018°04'0 0.0
2017-Dec-07 06:30N 69°13' E 018°04'0 0.0
2017-Dec-07 06:00N 69°13' E 018°04'0 0.0
2017-Dec-07 05:30N 69°13' E 018°04'0 0.0
2017-Dec-07 05:00N 69°13' E 018°04'0 0.0
2017-Dec-07 04:31N 69°13' E 018°04'0 0.0
2017-Dec-07 04:00N 69°13' E 018°04'2 4.8
2017-Dec-07 03:30N 69°11' E 018°01'4 7.3
2017-Dec-07 03:01N 69°09' E 017°52'4 7.6
2017-Dec-07 02:30N 69°08' E 017°42'4 7.6
2017-Dec-07 02:00N 69°06' E 017°32'4 7.6
2017-Dec-07 01:30N 69°04' E 017°23'4 7.7
2017-Dec-07 01:00N 69°01' E 017°17'4 7.6
2017-Dec-07 00:31N 68°59' E 017°10'4 7.6
2017-Dec-07 00:00N 68°56' E 017°01'4 7.2
2017-Dec-06 23:30N 68°54' E 016°54'4 7.4
2017-Dec-06 23:00N 68°51' E 016°46'4 7.3
2017-Dec-06 22:30N 68°49' E 016°37'2 3.9
2017-Dec-06 22:00N 68°48' E 016°33'4 7.2
2017-Dec-06 21:31N 68°46' E 016°41'5 9.1
2017-Dec-06 21:00N 68°41' E 016°40'  
2017-Dec-04 10:30N 67°16' E 014°21'0 0.7
2017-Dec-04 10:00N 67°17' E 014°21'1 2.3
2017-Dec-04 09:30N 67°17' E 014°23'0 0.0
2017-Dec-04 09:00N 67°17' E 014°23'0 0.2
2017-Dec-04 08:30N 67°17' E 014°23'1 2.5
2017-Dec-04 08:00N 67°16' E 014°21'0 0.0
2017-Dec-04 07:30N 67°16' E 014°21'0 0.0
2017-Dec-04 07:00N 67°16' E 014°21'0 0.0
2017-Dec-04 06:30N 67°16' E 014°21'1 1.9
2017-Dec-04 06:00N 67°16' E 014°18'4 8.1
2017-Dec-04 05:30N 67°13' E 014°11'4 8.2
2017-Dec-04 05:00N 67°10' E 014°04'4 8.2
2017-Dec-04 04:30N 67°06' E 013°59'4 8.4
2017-Dec-04 04:00N 67°03' E 013°52'4 8.7
2017-Dec-04 03:30N 67°00' E 013°44'4 8.5
2017-Dec-04 03:00N 66°58' E 013°35'3 6.7
2017-Dec-04 02:30N 66°55' E 013°29'4 8.5
2017-Dec-04 02:00N 66°53' E 013°21'4 8.5
2017-Dec-04 01:30N 66°49' E 013°16'4 8.8
2017-Dec-04 01:00N 66°45' E 013°12'4 9.0
2017-Dec-04 00:30N 66°41' E 013°08'4 8.9
2017-Dec-04 00:00N 66°36' E 013°05'4 7.8
2017-Dec-03 23:30N 66°33' E 013°01'4 7.9
2017-Dec-03 23:00N 66°29' E 012°59'4 8.9
2017-Dec-03 22:30N 66°24' E 012°58'4 8.8
2017-Dec-03 22:00N 66°20' E 012°57'4 8.6
2017-Dec-03 21:29N 66°16' E 012°55'3 6.6
2017-Dec-03 21:00N 66°13' E 012°58'3 6.7
2017-Dec-03 20:29N 66°10' E 013°04'4 8.4
2017-Dec-03 19:59N 66°11' E 013°14'0 0.2
2017-Dec-03 19:30N 66°11' E 013°14'0 0.0
2017-Dec-03 18:59N 66°11' E 013°14'0 0.0
2017-Dec-03 18:30N 66°11' E 013°14'0 0.0
2017-Dec-03 18:00N 66°11' E 013°14'3 6.5
2017-Dec-03 17:30N 66°11' E 013°06'3 6.6
2017-Dec-03 17:00N 66°12' E 012°59'4 7.6
2017-Dec-03 16:30N 66°16' E 012°55'5 9.9
2017-Dec-03 16:00N 66°21' E 012°57'5 9.8
2017-Dec-03 15:30N 66°25' E 012°59'5 9.8
2017-Dec-03 15:00N 66°30' E 012°59'4 8.9
2017-Dec-03 14:30N 66°34' E 013°04'5 9.7
2017-Dec-03 14:00N 66°39' E 013°06'5 9.9
2017-Dec-03 13:30N 66°43' E 013°11'510.1
2017-Dec-03 13:00N 66°48' E 013°15'5 9.6
2017-Dec-03 12:30N 66°52' E 013°21'4 9.2
2017-Dec-03 12:00N 66°56' E 013°29'4 8.2
2017-Dec-03 11:30N 66°59' E 013°35'5 9.1
2017-Dec-03 11:00N 67°02' E 013°45'5 9.1
2017-Dec-03 10:30N 67°04' E 013°54'4 8.6
2017-Dec-03 10:00N 67°08' E 014°01'4 8.4
2017-Dec-03 09:30N 67°11' E 014°06'5 9.1
2017-Dec-03 09:00N 67°15' E 014°14'3 5.8
2017-Dec-03 08:30N 67°16' E 014°21'0 0.0
2017-Dec-03 08:00N 67°16' E 014°21'0 0.0
2017-Dec-03 07:30N 67°16' E 014°21'0 0.0
2017-Dec-03 07:00N 67°16' E 014°21'0 0.0
2017-Dec-03 06:30N 67°16' E 014°21'0 0.0
2017-Dec-03 06:00N 67°16' E 014°21'0 0.0
2017-Dec-03 05:30N 67°16' E 014°21'0 0.0
2017-Dec-03 05:00N 67°16' E 014°21'0 0.0
2017-Dec-03 04:30N 67°16' E 014°21'0 0.0
2017-Dec-03 04:00N 67°16' E 014°21'0 0.0
2017-Dec-03 03:30N 67°16' E 014°21'0 0.0
2017-Dec-03 03:00N 67°16' E 014°21'0 0.8
2017-Dec-03 02:30N 67°16' E 014°20'2 3.5
2017-Dec-03 02:00N 67°15' E 014°18'2 4.8
2017-Dec-03 01:30N 67°15' E 014°25'2 4.3
2017-Dec-03 01:00N 67°15' E 014°30'2 4.7
2017-Dec-03 00:30N 67°14' E 014°36'4 7.7
2017-Dec-03 00:00N 67°14' E 014°46'4 8.0
2017-Dec-02 23:30N 67°16' E 014°56'3 5.5
2017-Dec-02 23:00N 67°13' E 014°59'4 7.8
2017-Dec-02 22:30N 67°09' E 014°57'2 4.7
2017-Dec-02 22:00N 67°07' E 014°59'0 0.0
2017-Dec-02 21:30N 67°07' E 014°59'0 0.0
2017-Dec-02 21:00N 67°07' E 014°59'0 0.0
2017-Dec-02 20:29N 67°07' E 014°59'4 7.3
2017-Dec-02 19:56N 67°11' E 014°56'4 9.1
2017-Dec-02 19:30N 67°14' E 015°01'5 9.7
2017-Dec-02 19:00N 67°14' E 015°14'4 8.6
2017-Dec-02 18:30N 67°15' E 015°25'0 0.2
2017-Dec-02 18:01N 67°15' E 015°25'0 0.0
2017-Dec-02 17:30N 67°15' E 015°25'0 0.0
2017-Dec-02 17:00N 67°15' E 015°25'0 0.0
2017-Dec-02 16:30N 67°15' E 015°25'0 0.0
2017-Dec-02 16:00N 67°15' E 015°25'0 0.0
2017-Dec-02 15:30N 67°15' E 015°25'0 0.0
2017-Dec-02 15:00N 67°15' E 015°25'0 0.1
2017-Dec-02 14:31N 67°15' E 015°25'4 7.7
2017-Dec-02 14:00N 67°14' E 015°15'4 9.0
2017-Dec-02 13:30N 67°15' E 015°04'4 8.6
2017-Dec-02 13:00N 67°16' E 014°53'4 8.4
2017-Dec-02 12:30N 67°14' E 014°43'3 6.7
2017-Dec-02 12:00N 67°15' E 014°36'1 1.1
2017-Dec-02 11:30N 67°15' E 014°37'2 3.3
2017-Dec-02 11:00N 67°15' E 014°33'3 6.6
2017-Dec-02 10:30N 67°14' E 014°25'4 7.3
2017-Dec-02 10:00N 67°13' E 014°16'4 7.5
2017-Dec-02 09:30N 67°11' E 014°08'4 7.5
2017-Dec-02 09:00N 67°08' E 014°01'4 8.5
2017-Dec-02 08:30N 67°05' E 013°55'4 8.5
2017-Dec-02 08:00N 67°02' E 013°47'4 8.3
2017-Dec-02 07:30N 66°60' E 013°38'4 8.3
2017-Dec-02 07:00N 66°57' E 013°29'4 7.6
2017-Dec-02 06:30N 66°54' E 013°26'4 8.0
2017-Dec-02 06:00N 66°51' E 013°19'4 7.6
2017-Dec-02 05:30N 66°47' E 013°15'4 8.1
2017-Dec-02 05:00N 66°43' E 013°11'4 8.0
2017-Dec-02 04:30N 66°40' E 013°08'4 7.8
2017-Dec-02 04:00N 66°36' E 013°04'3 6.9
2017-Dec-02 03:30N 66°33' E 013°01'3 6.9
2017-Dec-02 03:00N 66°30' E 012°59'4 8.0
2017-Dec-02 02:29N 66°25' E 012°59'4 8.1
2017-Dec-02 02:00N 66°22' E 012°58'4 7.6
2017-Dec-02 01:30N 66°18' E 012°56'4 7.8
2017-Dec-02 01:00N 66°14' E 012°54'4 8.2
2017-Dec-02 00:30N 66°10' E 012°50'4 8.3
2017-Dec-02 00:00N 66°07' E 012°44'4 8.7
2017-Dec-01 23:30N 66°03' E 012°38'4 8.8
2017-Dec-01 23:00N 65°60' E 012°31'4 8.9
2017-Dec-01 22:30N 65°56' E 012°25'4 8.7
2017-Dec-01 22:00N 65°52' E 012°22'4 8.5
2017-Dec-01 21:30N 65°48' E 012°20'4 8.1
2017-Dec-01 21:00N 65°44' E 012°18'4 8.3
2017-Dec-01 20:30N 65°40' E 012°16'4 8.4
2017-Dec-01 20:00N 65°36' E 012°14'4 8.5
2017-Dec-01 19:30N 65°32' E 012°12'4 7.9
2017-Dec-01 19:00N 65°28' E 012°11'5 9.6
2017-Dec-01 18:30N 65°23' E 012°07'5 9.4
2017-Dec-01 18:00N 65°19' E 012°01'5 9.3
2017-Dec-01 17:30N 65°15' E 011°56'5 9.4
2017-Dec-01 17:00N 65°11' E 011°51'  

Dump ship's entire track history